Time;durP1;ratioP1;P1;durP2;ratioP2;P2;SDS_P1;SDS_P2;PMS_P1;PMS_P2;Temp;Humidity;BMP_temperature;BMP_pressure;BME280_temperature;BME280_humidity;BME280_pressure;Samples;Min_cycle;Max_cycle;Signal;HPM_P1;HPM_P2
2023/04/09 00:02:16;;;;;;;65.43;33.92;;;8.70;99.90;;;;;;5053111;28;20047;-63
2023/04/09 00:04:41;;;;;;;70.35;34.22;;;8.70;99.90;;;;;;5049749;28;20037;-63
2023/04/09 00:07:07;;;;;;;66.05;34.33;;;8.70;99.90;;;;;;5051721;28;20513;-63
2023/04/09 00:09:32;;;;;;;68.57;35.03;;;8.70;99.90;;;;;;5065160;28;20032;-63
2023/04/09 00:11:58;;;;;;;68.20;32.80;;;8.70;99.90;;;;;;5072680;28;20405;-63
2023/04/09 00:14:24;;;;;;;67.22;33.85;;;8.70;99.90;;;;;;5046380;28;20068;-63
2023/04/09 00:16:49;;;;;;;68.22;33.58;;;8.60;99.90;;;;;;5035899;28;20198;-63
2023/04/09 00:19:15;;;;;;;64.38;32.55;;;8.60;99.90;;;;;;5053073;28;20044;-63
2023/04/09 00:21:41;;;;;;;62.50;32.15;;;8.60;99.90;;;;;;5051553;28;20041;-63
2023/04/09 00:24:07;;;;;;;62.70;31.23;;;8.60;99.90;;;;;;5053801;28;20050;-63
2023/04/09 00:26:32;;;;;;;63.00;31.60;;;8.60;99.90;;;;;;5053310;28;20123;-64
2023/04/09 00:28:58;;;;;;;66.30;32.72;;;8.60;99.90;;;;;;5052677;28;20041;-64
2023/04/09 00:31:24;;;;;;;62.75;32.75;;;8.60;99.90;;;;;;5053139;28;20033;-63
2023/04/09 00:33:49;;;;;;;62.90;31.67;;;8.60;99.90;;;;;;5051554;28;20043;-64
2023/04/09 00:36:15;;;;;;;62.13;31.80;;;8.60;99.90;;;;;;5050576;28;20445;-63
2023/04/09 00:38:40;;;;;;;62.03;33.42;;;8.60;99.90;;;;;;5062321;28;20055;-64
2023/04/09 00:41:06;;;;;;;65.63;33.97;;;8.60;99.90;;;;;;5054591;28;20037;-64
2023/04/09 00:43:32;;;;;;;69.40;33.65;;;8.50;99.90;;;;;;5051527;28;20033;-64
2023/04/09 00:45:59;;;;;;;71.38;34.00;;;8.60;99.90;;;;;;5052918;28;20087;-64
2023/04/09 00:48:25;;;;;;;68.85;34.13;;;8.60;99.90;;;;;;5047737;28;20041;-63
2023/04/09 00:50:51;;;;;;;63.65;32.47;;;8.60;99.90;;;;;;5049367;28;20051;-64
2023/04/09 00:53:17;;;;;;;60.83;32.67;;;8.60;99.90;;;;;;5031770;28;20053;-64
2023/04/09 00:55:43;;;;;;;66.22;32.53;;;8.60;99.90;;;;;;5051511;28;20069;-63
2023/04/09 00:58:09;;;;;;;65.10;32.97;;;8.60;99.90;;;;;;5052073;28;20037;-64
2023/04/09 01:00:34;;;;;;;66.97;32.97;;;8.50;99.90;;;;;;5045906;28;20037;-63
2023/04/09 01:03:02;;;;;;;66.78;32.90;;;8.60;99.90;;;;;;5047587;28;20033;-63
2023/04/09 01:05:39;;;;;;;63.70;32.75;;;8.60;99.90;;;;;;5044921;28;20040;-64
2023/04/09 01:08:19;;;;;;;66.35;33.35;;;8.60;99.90;;;;;;5032601;28;20398;-64
2023/04/09 01:11:17;;;;;;;60.97;32.00;;;8.60;99.90;;;;;;5060972;28;20124;-63
2023/04/09 01:13:54;;;;;;;65.05;32.95;;;8.50;99.90;;;;;;5042379;28;20136;-63
2023/04/09 01:16:22;;;;;;;62.58;32.75;;;8.60;99.90;;;;;;5048270;28;20446;-63
2023/04/09 01:19:01;;;;;;;57.17;31.85;;;8.60;99.90;;;;;;5057601;28;20083;-64
2023/04/09 01:21:32;;;;;;;64.95;34.80;;;8.60;99.90;;;;;;5052265;28;20087;-64
2023/04/09 01:24:39;;;;;;;66.82;33.67;;;8.60;99.90;;;;;;5048471;28;20049;-63
2023/04/09 01:27:06;;;;;;;61.35;33.17;;;8.60;99.90;;;;;;5053436;28;20083;-64
2023/04/09 01:29:36;;;;;;;61.08;33.70;;;8.60;99.90;;;;;;5037445;28;20048;-63
2023/04/09 01:32:03;;;;;;;64.75;34.03;;;8.60;99.90;;;;;;5052244;28;20075;-64
2023/04/09 01:37:07;;;;;;;65.65;33.30;;;8.50;99.90;;;;;;5045100;28;20060;-64
2023/04/09 01:39:33;;;;;;;60.40;32.70;;;8.50;99.90;;;;;;5055377;28;20045;-63
2023/04/09 01:42:01;;;;;;;66.25;33.55;;;8.50;99.90;;;;;;5059694;28;20051;-63
2023/04/09 01:44:27;;;;;;;71.82;34.42;;;8.50;99.90;;;;;;5054947;28;20039;-64
2023/04/09 01:46:54;;;;;;;66.07;34.55;;;8.40;99.90;;;;;;5027766;28;20128;-63
2023/04/09 01:49:19;;;;;;;63.33;33.90;;;8.40;99.90;;;;;;5041757;28;20044;-64
2023/04/09 01:51:46;;;;;;;62.40;33.35;;;8.40;99.90;;;;;;5041624;28;20045;-63
2023/04/09 01:54:12;;;;;;;59.97;31.67;;;8.40;99.90;;;;;;5032265;28;20108;-64
2023/04/09 01:56:42;;;;;;;63.65;31.98;;;8.50;99.90;;;;;;5029621;28;20562;-63
2023/04/09 01:59:08;;;;;;;69.53;34.65;;;8.50;99.90;;;;;;5039148;28;20048;-64
2023/04/09 02:01:39;;;;;;;62.35;32.55;;;8.50;99.90;;;;;;5026876;28;20059;-64
2023/04/09 02:04:13;;;;;;;59.83;32.85;;;8.40;99.90;;;;;;5037045;28;20048;-64
2023/04/09 02:06:57;;;;;;;64.35;32.63;;;8.40;99.90;;;;;;5035818;28;20038;-64
2023/04/09 02:09:23;;;;;;;65.40;32.10;;;8.40;99.90;;;;;;5023501;28;20564;-64
2023/04/09 02:11:50;;;;;;;60.13;31.20;;;8.40;99.90;;;;;;5031635;28;20052;-64
2023/04/09 02:14:17;;;;;;;61.90;32.33;;;8.40;99.90;;;;;;5030609;28;20431;-64
2023/04/09 02:16:43;;;;;;;61.40;32.45;;;8.40;99.90;;;;;;5040424;28;20048;-64
2023/04/09 02:19:09;;;;;;;61.28;30.60;;;8.40;99.90;;;;;;5039279;28;20087;-64
2023/04/09 02:21:34;;;;;;;61.13;30.35;;;8.40;99.90;;;;;;5030658;28;20046;-64
2023/04/09 02:24:00;;;;;;;58.90;31.25;;;8.30;99.90;;;;;;5029699;28;20092;-64
2023/04/09 02:26:25;;;;;;;59.33;31.83;;;8.30;99.90;;;;;;5031305;28;20041;-64
2023/04/09 02:28:51;;;;;;;62.42;31.98;;;8.30;99.90;;;;;;5028610;28;20042;-64
2023/04/09 02:31:17;;;;;;;63.03;30.55;;;8.30;99.90;;;;;;5035444;28;20483;-64
2023/04/09 02:33:42;;;;;;;66.85;32.22;;;8.30;99.90;;;;;;5046594;28;20048;-64
2023/04/09 02:36:11;;;;;;;60.92;32.25;;;8.30;99.90;;;;;;5035325;28;20128;-64
2023/04/09 02:38:40;;;;;;;62.35;31.40;;;8.30;99.90;;;;;;5047525;28;20574;-64
2023/04/09 02:41:06;;;;;;;58.10;30.77;;;8.30;99.90;;;;;;5033672;28;20045;-64
2023/04/09 02:43:31;;;;;;;60.10;29.65;;;8.30;99.90;;;;;;5030136;28;20060;-64
2023/04/09 02:45:57;;;;;;;60.95;32.13;;;8.30;99.90;;;;;;5039515;28;20037;-64
2023/04/09 02:48:23;;;;;;;57.38;30.90;;;8.30;99.90;;;;;;5035427;28;20082;-64
2023/04/09 02:50:48;;;;;;;57.17;30.02;;;8.20;99.90;;;;;;5045937;28;20052;-64
2023/04/09 02:53:16;;;;;;;58.88;29.83;;;8.20;99.90;;;;;;5041005;28;20036;-64
2023/04/09 02:55:41;;;;;;;55.50;28.67;;;8.20;99.90;;;;;;5045947;28;20407;-64
2023/04/09 02:58:07;;;;;;;55.50;29.45;;;8.20;99.90;;;;;;5032690;28;20041;-64
2023/04/09 03:00:33;;;;;;;59.30;30.63;;;8.20;99.90;;;;;;5031220;28;20036;-65
2023/04/09 03:02:58;;;;;;;61.10;31.50;;;8.10;99.90;;;;;;5047384;28;20519;-64
2023/04/09 03:05:24;;;;;;;61.00;30.38;;;8.10;99.90;;;;;;5028662;28;20112;-64
2023/04/09 03:07:50;;;;;;;58.13;29.65;;;8.20;99.90;;;;;;5037692;28;20060;-64
2023/04/09 03:10:15;;;;;;;61.13;31.50;;;8.10;99.90;;;;;;5030957;28;20064;-64
2023/04/09 03:12:43;;;;;;;57.75;29.30;;;8.20;99.90;;;;;;5031044;28;20037;-64
2023/04/09 03:15:09;;;;;;;58.40;31.13;;;8.10;99.90;;;;;;5028382;28;20064;-64
2023/04/09 03:17:35;;;;;;;60.83;31.08;;;8.10;99.90;;;;;;5045535;28;20029;-64
2023/04/09 03:20:00;;;;;;;57.50;29.73;;;8.10;99.90;;;;;;5034349;28;20060;-64
2023/04/09 03:22:26;;;;;;;58.08;29.38;;;8.10;99.90;;;;;;5031055;28;20104;-64
2023/04/09 03:24:51;;;;;;;56.97;29.38;;;8.10;99.90;;;;;;5029641;28;20057;-64
2023/04/09 03:27:17;;;;;;;59.30;30.05;;;8.20;99.90;;;;;;5037787;28;20418;-64
2023/04/09 03:29:43;;;;;;;58.28;30.55;;;8.20;99.90;;;;;;5043859;28;20556;-64
2023/04/09 03:32:08;;;;;;;58.72;30.17;;;8.20;99.90;;;;;;5037135;28;20506;-64
2023/04/09 03:34:34;;;;;;;60.60;30.52;;;8.10;99.90;;;;;;5028285;28;20048;-64
2023/04/09 03:36:59;;;;;;;61.17;31.15;;;8.10;99.90;;;;;;5030024;28;20033;-64
2023/04/09 03:39:25;;;;;;;58.05;30.73;;;8.10;99.90;;;;;;5029750;28;20048;-64
2023/04/09 03:41:51;;;;;;;61.20;30.92;;;8.10;99.90;;;;;;5028373;28;20052;-64
2023/04/09 03:44:16;;;;;;;60.20;29.60;;;8.10;99.90;;;;;;5047094;28;20037;-64
2023/04/09 03:46:42;;;;;;;60.15;30.17;;;8.10;99.90;;;;;;5040758;28;20048;-64
2023/04/09 03:49:07;;;;;;;64.15;30.48;;;8.10;99.90;;;;;;5043368;28;20076;-64
2023/04/09 03:51:33;;;;;;;57.95;30.20;;;8.10;99.90;;;;;;5040532;28;20099;-64
2023/04/09 03:53:58;;;;;;;64.28;31.88;;;8.10;99.90;;;;;;5033538;28;20096;-64
2023/04/09 03:56:24;;;;;;;58.28;29.85;;;8.10;99.90;;;;;;5032845;28;20095;-64
2023/04/09 03:58:50;;;;;;;61.22;30.38;;;8.10;99.90;;;;;;5039294;28;20045;-64
2023/04/09 04:01:15;;;;;;;59.50;30.27;;;8.10;99.90;;;;;;5043432;28;20033;-64
2023/04/09 04:03:41;;;;;;;60.60;31.30;;;8.10;99.90;;;;;;5033197;28;20047;-64
2023/04/09 04:06:06;;;;;;;58.75;30.17;;;8.10;99.90;;;;;;5030449;28;20112;-64
2023/04/09 04:08:32;;;;;;;61.20;31.02;;;8.20;99.90;;;;;;5044055;28;20041;-64
2023/04/09 04:11:04;;;;;;;55.08;28.80;;;8.10;99.90;;;;;;5044905;28;20052;-64
2023/04/09 04:13:30;;;;;;;59.42;29.65;;;8.20;99.90;;;;;;5030009;28;20061;-64
2023/04/09 04:15:55;;;;;;;56.65;31.15;;;8.20;99.90;;;;;;5032001;28;20041;-64
2023/04/09 04:18:21;;;;;;;57.53;29.95;;;8.20;99.90;;;;;;5045924;28;20095;-64
2023/04/09 04:20:46;;;;;;;54.53;29.42;;;8.10;99.90;;;;;;5036837;28;20045;-65
2023/04/09 04:23:12;;;;;;;56.15;29.83;;;8.10;99.90;;;;;;5027120;28;20087;-64
2023/04/09 04:25:40;;;;;;;57.30;29.35;;;8.20;99.90;;;;;;5034322;28;20121;-65
2023/04/09 04:28:06;;;;;;;52.63;28.38;;;8.20;99.90;;;;;;5025870;28;20091;-64
2023/04/09 04:30:32;;;;;;;54.65;29.27;;;8.10;99.90;;;;;;5033459;28;20041;-65
2023/04/09 04:32:57;;;;;;;52.45;29.08;;;8.10;99.90;;;;;;5032570;28;20048;-64
2023/04/09 04:35:23;;;;;;;55.55;29.60;;;8.10;99.90;;;;;;5041456;28;20112;-65
2023/04/09 04:37:50;;;;;;;52.25;27.15;;;8.10;99.90;;;;;;5041238;28;20107;-64
2023/04/09 04:40:15;;;;;;;56.85;30.42;;;8.10;99.90;;;;;;5040614;28;20084;-64
2023/04/09 04:42:41;;;;;;;58.67;31.02;;;8.10;99.90;;;;;;5024229;28;20084;-65
2023/04/09 04:45:07;;;;;;;59.03;29.38;;;8.10;99.90;;;;;;5039573;28;20120;-65
2023/04/09 04:47:33;;;;;;;53.28;28.75;;;8.10;99.90;;;;;;5042420;28;20033;-65
2023/04/09 04:49:58;;;;;;;48.05;26.55;;;8.10;99.90;;;;;;5049206;28;20071;-65
2023/04/09 04:52:24;;;;;;;49.85;25.65;;;8.00;99.90;;;;;;5042785;28;20046;-64
2023/04/09 04:54:49;;;;;;;52.22;27.63;;;8.10;99.90;;;;;;5028007;28;20045;-65
2023/04/09 04:57:15;;;;;;;48.50;26.42;;;8.10;99.90;;;;;;5032966;28;20116;-65
2023/04/09 04:59:40;;;;;;;52.33;28.05;;;8.10;99.90;;;;;;5037372;28;20068;-65
2023/04/09 05:02:07;;;;;;;50.78;27.60;;;8.10;99.90;;;;;;5048743;28;20036;-64
2023/04/09 05:04:32;;;;;;;49.00;26.58;;;8.10;99.90;;;;;;5043938;28;20060;-65
2023/04/09 05:06:58;;;;;;;51.30;28.08;;;8.10;99.90;;;;;;5046157;28;20072;-65
2023/04/09 05:09:24;;;;;;;53.25;26.45;;;8.10;99.90;;;;;;5042762;28;20086;-65
2023/04/09 05:11:49;;;;;;;47.20;26.38;;;8.10;99.90;;;;;;5052189;28;20040;-65
2023/04/09 05:14:15;;;;;;;46.42;25.80;;;8.10;99.90;;;;;;5012664;28;20056;-65
2023/04/09 05:16:41;;;;;;;50.53;26.17;;;8.00;99.90;;;;;;5017126;28;20465;-65
2023/04/09 05:19:06;;;;;;;53.35;27.42;;;8.00;99.90;;;;;;5035181;28;20073;-65
2023/04/09 05:21:32;;;;;;;49.25;28.13;;;8.10;99.90;;;;;;5032549;28;20044;-65
2023/04/09 05:23:58;;;;;;;55.05;28.05;;;8.00;99.90;;;;;;5039062;28;20030;-64
2023/04/09 05:26:23;;;;;;;51.13;28.13;;;8.10;99.90;;;;;;5030378;28;20041;-64
2023/04/09 05:28:49;;;;;;;51.85;27.95;;;8.10;99.90;;;;;;5027285;28;20037;-64
2023/04/09 05:31:14;;;;;;;54.47;29.00;;;8.10;99.90;;;;;;5024158;28;20403;-65
2023/04/09 05:33:41;;;;;;;50.33;27.70;;;8.10;99.90;;;;;;5038931;28;20086;-65
2023/04/09 05:36:07;;;;;;;50.47;28.73;;;8.10;99.90;;;;;;5034104;28;20045;-65
2023/04/09 05:38:33;;;;;;;53.13;27.65;;;8.10;99.90;;;;;;5020177;28;20034;-64
2023/04/09 05:40:58;;;;;;;56.05;27.77;;;8.10;99.90;;;;;;5024202;28;20120;-65
2023/04/09 05:43:24;;;;;;;53.55;28.45;;;8.10;99.90;;;;;;5044679;28;20499;-65
2023/04/09 05:45:50;;;;;;;57.03;31.30;;;8.10;99.90;;;;;;5052179;28;20036;-65
2023/04/09 05:48:17;;;;;;;55.28;29.77;;;8.20;99.90;;;;;;5038431;28;20041;-65
2023/04/09 05:50:49;;;;;;;55.10;28.13;;;8.20;99.90;;;;;;5035920;28;20036;-65
2023/04/09 05:53:15;;;;;;;53.45;27.95;;;8.10;99.90;;;;;;5051370;28;20140;-65
2023/04/09 05:55:40;;;;;;;54.58;29.00;;;8.10;99.90;;;;;;5047876;28;20120;-64
2023/04/09 05:58:06;;;;;;;51.78;27.98;;;8.20;99.90;;;;;;5040027;28;20407;-64
2023/04/09 06:00:32;;;;;;;52.60;28.30;;;8.20;99.90;;;;;;5029046;28;20029;-64
2023/04/09 06:02:57;;;;;;;56.15;28.92;;;8.20;99.90;;;;;;5023241;28;20046;-64
2023/04/09 06:05:23;;;;;;;58.25;28.80;;;8.20;99.90;;;;;;5030564;28;20040;-64
2023/04/09 06:07:48;;;;;;;61.58;29.92;;;8.20;99.90;;;;;;5038545;28;20037;-64
2023/04/09 06:10:14;;;;;;;57.45;30.25;;;8.20;99.90;;;;;;5024755;28;20033;-64
2023/04/09 06:12:39;;;;;;;57.03;29.25;;;8.30;99.90;;;;;;5026015;28;20034;-64
2023/04/09 06:15:05;;;;;;;61.08;31.15;;;8.30;99.90;;;;;;5031521;28;20049;-64
2023/04/09 06:17:31;;;;;;;61.33;29.92;;;8.40;99.90;;;;;;5037631;28;20033;-64
2023/04/09 06:19:56;;;;;;;64.32;31.60;;;8.40;99.90;;;;;;5027079;28;20041;-64
2023/04/09 06:22:22;;;;;;;58.88;31.25;;;8.40;99.90;;;;;;5042887;28;20422;-64
2023/04/09 06:24:47;;;;;;;59.85;30.45;;;8.50;99.90;;;;;;5033323;28;20436;-64
2023/04/09 06:27:13;;;;;;;59.80;30.88;;;8.50;99.90;;;;;;5030275;28;20056;-64
2023/04/09 06:29:39;;;;;;;57.83;30.73;;;8.60;99.90;;;;;;5023283;28;20415;-64
2023/04/09 06:32:04;;;;;;;58.25;30.83;;;8.70;99.90;;;;;;5027329;28;20443;-64
2023/04/09 06:34:30;;;;;;;60.08;30.23;;;8.80;99.90;;;;;;5037023;28;20037;-64
2023/04/09 06:36:55;;;;;;;59.95;30.63;;;8.80;99.90;;;;;;5028777;28;20042;-65
2023/04/09 06:39:21;;;;;;;56.83;30.40;;;8.90;99.90;;;;;;5029965;28;20085;-64
2023/04/09 06:41:47;;;;;;;60.08;30.88;;;8.90;99.90;;;;;;5041277;28;20422;-64
2023/04/09 06:44:12;;;;;;;59.67;30.55;;;8.90;99.90;;;;;;5038719;28;20132;-64
2023/04/09 06:46:38;;;;;;;61.60;30.13;;;8.90;99.90;;;;;;5036189;28;20123;-64
2023/04/09 06:49:04;;;;;;;56.15;30.30;;;8.90;99.90;;;;;;5028201;28;20048;-64
2023/04/09 06:51:30;;;;;;;58.78;29.83;;;8.90;99.90;;;;;;5031956;28;20038;-64
2023/04/09 06:53:56;;;;;;;55.20;30.45;;;8.90;99.90;;;;;;5029036;28;20037;-64
2023/04/09 06:56:21;;;;;;;58.78;29.70;;;9.00;99.90;;;;;;5027681;28;20042;-64
2023/04/09 06:58:47;;;;;;;60.25;30.75;;;9.10;99.90;;;;;;5032046;28;20068;-64
2023/04/09 07:01:13;;;;;;;58.88;30.70;;;9.10;99.90;;;;;;5041337;28;20120;-64
2023/04/09 07:03:39;;;;;;;57.78;30.73;;;9.10;99.90;;;;;;5024811;28;20069;-64
2023/04/09 07:06:05;;;;;;;57.33;30.40;;;9.20;99.90;;;;;;5028984;28;20501;-64
2023/04/09 07:08:30;;;;;;;60.47;31.88;;;9.20;99.90;;;;;;5040413;28;20116;-64
2023/04/09 07:10:56;;;;;;;59.95;30.52;;;9.20;99.90;;;;;;5026990;28;20127;-64
2023/04/09 07:13:21;;;;;;;58.20;30.95;;;9.30;99.90;;;;;;5049153;28;20136;-64
2023/04/09 07:15:47;;;;;;;59.60;30.20;;;9.30;99.90;;;;;;5027306;28;20115;-64
2023/04/09 07:18:13;;;;;;;59.63;31.42;;;9.30;99.90;;;;;;5027604;28;20683;-64
2023/04/09 07:20:38;;;;;;;56.78;30.40;;;9.30;99.90;;;;;;5036541;28;20448;-64
2023/04/09 07:23:04;;;;;;;59.75;32.30;;;9.30;99.90;;;;;;5043056;28;20029;-64
2023/04/09 07:25:29;;;;;;;63.85;31.63;;;9.30;99.90;;;;;;5040972;28;20083;-65
2023/04/09 07:27:55;;;;;;;63.47;33.55;;;9.30;99.90;;;;;;5040115;28;20048;-64
2023/04/09 07:30:21;;;;;;;66.30;34.88;;;9.40;99.90;;;;;;5054578;28;20048;-65
2023/04/09 07:32:46;;;;;;;63.63;34.53;;;9.50;99.90;;;;;;5054343;28;20037;-64
2023/04/09 07:35:12;;;;;;;64.00;34.30;;;9.50;99.90;;;;;;5060343;22;20049;-63
2023/04/09 07:37:37;;;;;;;65.82;35.33;;;9.50;99.90;;;;;;5063425;28;20037;-63
2023/04/09 07:40:03;;;;;;;65.07;35.17;;;9.50;99.90;;;;;;5091181;28;20047;-63
2023/04/09 07:42:29;;;;;;;64.38;35.65;;;9.50;99.90;;;;;;5094653;28;20044;-63
2023/04/09 07:44:58;;;;;;;62.45;34.88;;;9.60;99.90;;;;;;5094433;28;20043;-63
2023/04/09 07:47:25;;;;;;;66.30;36.63;;;9.70;99.90;;;;;;5086203;28;20087;-63
2023/04/09 07:49:51;;;;;;;69.75;37.67;;;9.70;99.90;;;;;;5062271;28;20090;-63
2023/04/09 07:52:16;;;;;;;67.15;36.15;;;9.70;99.90;;;;;;5075147;28;20072;-63
2023/04/09 07:54:42;;;;;;;70.40;37.40;;;9.80;99.90;;;;;;5074579;28;20445;-63
2023/04/09 07:57:07;;;;;;;67.43;37.72;;;9.80;99.90;;;;;;5072892;28;20557;-63
2023/04/09 07:59:35;;;;;;;70.03;38.05;;;9.80;99.90;;;;;;5077806;28;20047;-62
2023/04/09 08:02:00;;;;;;;71.20;37.22;;;9.80;99.90;;;;;;5090025;28;20040;-62
2023/04/09 08:04:26;;;;;;;70.55;38.10;;;9.80;99.90;;;;;;5085572;28;20500;-63
2023/04/09 08:06:53;;;;;;;64.22;34.75;;;9.80;99.90;;;;;;5088632;28;20453;-63
2023/04/09 08:09:19;;;;;;;62.28;34.47;;;10.00;99.90;;;;;;5085689;28;20150;-64
2023/04/09 08:11:46;;;;;;;65.68;36.20;;;10.10;99.90;;;;;;5094155;28;20040;-64
2023/04/09 08:14:15;;;;;;;63.67;35.38;;;10.20;99.90;;;;;;5086279;28;20040;-64
2023/04/09 08:16:46;;;;;;;61.38;34.50;;;10.30;99.90;;;;;;5074661;28;20047;-63
2023/04/09 08:19:12;;;;;;;61.90;34.45;;;10.40;99.90;;;;;;5082815;28;20482;-63
2023/04/09 08:21:42;;;;;;;58.53;31.83;;;10.50;99.90;;;;;;5094027;28;20036;-63
2023/04/09 08:24:10;;;;;;;60.20;33.33;;;10.60;99.90;;;;;;5087362;28;20036;-63
2023/04/09 08:26:36;;;;;;;61.28;33.58;;;10.80;99.90;;;;;;5081399;28;20159;-63
2023/04/09 08:29:01;;;;;;;60.33;33.88;;;10.90;99.90;;;;;;5089483;28;20089;-63
2023/04/09 08:31:27;;;;;;;60.60;33.78;;;11.00;99.90;;;;;;5084388;28;20037;-63
2023/04/09 08:33:53;;;;;;;57.80;31.45;;;11.00;99.90;;;;;;5083075;28;20044;-64
2023/04/09 08:36:19;;;;;;;58.42;33.55;;;11.10;99.90;;;;;;5067319;28;20063;-64
2023/04/09 08:38:46;;;;;;;58.22;33.25;;;11.10;99.90;;;;;;5093374;28;20040;-63
2023/04/09 08:41:20;;;;;;;58.17;32.22;;;11.20;99.90;;;;;;5093156;28;20051;-64
2023/04/09 08:43:50;;;;;;;53.53;29.45;;;11.30;99.90;;;;;;5080693;28;20119;-64
2023/04/09 08:46:17;;;;;;;57.15;31.05;;;11.40;99.90;;;;;;5072627;28;20041;-64
2023/04/09 08:48:45;;;;;;;55.47;31.50;;;11.40;99.90;;;;;;5080901;28;20518;-63
2023/04/09 08:51:18;;;;;;;53.45;30.38;;;11.40;99.90;;;;;;5085515;28;20040;-64
2023/04/09 08:53:46;;;;;;;52.53;30.88;;;11.50;99.90;;;;;;5086962;28;20043;-64
2023/04/09 08:56:13;;;;;;;52.10;29.70;;;11.60;99.90;;;;;;5093404;28;20040;-64
2023/04/09 08:58:43;;;;;;;51.70;28.63;;;11.80;99.90;;;;;;5092738;28;20496;-64
2023/04/09 09:01:23;;;;;;;51.47;29.33;;;11.90;99.90;;;;;;5079845;28;20078;-63
2023/04/09 09:04:03;;;;;;;55.22;29.55;;;12.00;99.90;;;;;;5072334;28;20063;-64
2023/04/09 09:06:31;;;;;;;51.78;29.55;;;12.10;99.90;;;;;;5072600;28;20034;-64
2023/04/09 09:09:03;;;;;;;56.28;30.30;;;12.10;99.90;;;;;;5072549;28;20043;-64
2023/04/09 09:11:29;;;;;;;53.15;28.90;;;12.10;99.90;;;;;;5069513;28;20083;-64
2023/04/09 09:14:09;;;;;;;52.58;29.25;;;12.10;99.90;;;;;;5072403;28;20072;-64
2023/04/09 09:16:38;;;;;;;48.60;28.52;;;12.30;99.90;;;;;;5072897;28;20106;-64
2023/04/09 09:19:05;;;;;;;49.78;27.50;;;12.30;99.90;;;;;;5072204;28;20593;-64
2023/04/09 09:21:31;;;;;;;52.55;29.00;;;12.40;99.90;;;;;;5072428;28;20032;-64
2023/04/09 09:23:57;;;;;;;58.13;31.33;;;12.50;99.90;;;;;;5076126;28;20082;-63
2023/04/09 09:26:25;;;;;;;49.30;28.30;;;12.60;99.90;;;;;;5075166;28;20074;-64
2023/04/09 09:28:51;;;;;;;47.92;27.88;;;12.70;99.90;;;;;;5092844;28;20065;-64
2023/04/09 09:31:18;;;;;;;53.72;31.55;;;12.80;99.90;;;;;;5084966;28;20098;-64
2023/04/09 09:33:45;;;;;;;48.65;29.15;;;12.80;99.90;;;;;;5086224;28;20122;-64
2023/04/09 09:36:11;;;;;;;45.45;27.27;;;12.80;99.90;;;;;;5092683;28;20039;-64
2023/04/09 09:38:55;;;;;;;53.08;29.70;;;12.80;99.90;;;;;;5072757;28;20079;-64
2023/04/09 09:41:21;;;;;;;50.72;30.20;;;12.90;99.90;;;;;;5073356;28;20478;-63
2023/04/09 09:43:47;;;;;;;49.10;29.05;;;12.90;99.90;;;;;;5085868;28;20081;-63
2023/04/09 09:46:13;;;;;;;48.50;28.25;;;13.10;99.90;;;;;;5092885;28;20036;-64
2023/04/09 09:48:39;;;;;;;49.53;28.30;;;13.10;99.90;;;;;;5091883;28;20036;-64
2023/04/09 09:51:09;;;;;;;52.15;29.95;;;13.20;99.90;;;;;;5079036;28;20040;-64
2023/04/09 09:53:36;;;;;;;47.45;27.42;;;13.30;99.90;;;;;;5065454;28;20047;-64
2023/04/09 09:56:09;;;;;;;43.03;26.25;;;13.40;99.90;;;;;;5079948;28;20040;-64
2023/04/09 09:58:48;;;;;;;47.67;28.33;;;13.40;99.90;;;;;;5071618;28;20417;-63
2023/04/09 10:01:18;;;;;;;49.00;29.27;;;13.40;99.90;;;;;;5070016;28;20110;-63
2023/04/09 10:03:45;;;;;;;47.45;27.40;;;13.50;99.90;;;;;;5083760;28;20093;-64
2023/04/09 10:06:13;;;;;;;49.80;29.25;;;13.60;99.90;;;;;;5091847;28;20393;-64
2023/04/09 10:08:41;;;;;;;48.25;28.65;;;13.60;99.90;;;;;;5063707;28;20046;-64
2023/04/09 10:11:07;;;;;;;45.80;27.45;;;13.40;99.90;;;;;;5076935;28;20051;-64
2023/04/09 10:13:41;;;;;;;41.33;25.58;;;13.50;99.90;;;;;;5082611;28;20036;-64
2023/04/09 10:16:08;;;;;;;47.85;27.92;;;13.60;99.90;;;;;;5092054;28;20028;-64
2023/04/09 10:18:34;;;;;;;46.78;27.65;;;13.40;99.90;;;;;;5092014;28;20397;-64
2023/04/09 10:21:11;;;;;;;41.38;26.20;;;13.40;99.90;;;;;;5085425;28;20485;-63
2023/04/09 10:23:40;;;;;;;46.10;27.33;;;13.30;99.90;;;;;;5067658;28;20504;-63
2023/04/09 10:26:06;;;;;;;43.03;24.90;;;13.20;99.90;;;;;;5091853;28;20115;-63
2023/04/09 10:28:32;;;;;;;39.63;24.38;;;13.20;99.90;;;;;;5074071;28;20043;-63
2023/04/09 10:30:58;;;;;;;39.67;24.92;;;13.20;99.90;;;;;;5086349;28;20120;-63
2023/04/09 10:33:26;;;;;;;41.35;23.83;;;13.40;99.90;;;;;;5062161;28;20118;-63
2023/04/09 10:35:53;;;;;;;36.83;21.95;;;13.60;99.90;;;;;;5083954;28;20032;-63
2023/04/09 10:38:39;;;;;;;41.03;24.77;;;13.70;99.90;;;;;;5069563;28;20102;-63
2023/04/09 10:41:21;;;;;;;40.13;24.08;;;13.70;99.90;;;;;;5071394;28;20033;-63
2023/04/09 10:43:47;;;;;;;40.20;23.60;;;13.80;99.90;;;;;;5071666;28;20036;-64
2023/04/09 10:46:28;;;;;;;40.50;24.15;;;13.70;99.90;;;;;;5071638;28;20111;-63
2023/04/09 10:49:10;;;;;;;39.80;23.07;;;13.80;99.90;;;;;;5073376;28;20044;-63
2023/04/09 10:51:40;;;;;;;35.03;21.27;;;13.90;99.90;;;;;;5075202;28;20118;-63
2023/04/09 10:54:25;;;;;;;37.58;21.75;;;13.90;99.90;;;;;;5091069;28;20036;-63
2023/04/09 10:57:09;;;;;;;34.95;21.48;;;13.80;99.90;;;;;;5090765;28;20068;-63
2023/04/09 10:59:42;;;;;;;37.97;22.70;;;13.80;99.90;;;;;;5075273;28;20483;-63
2023/04/09 11:02:38;;;;;;;33.80;21.42;;;13.90;99.90;;;;;;5075337;28;20044;-63
2023/04/09 11:05:25;;;;;;;36.22;21.75;;;14.00;99.90;;;;;;5073201;28;20497;-63
2023/04/09 11:08:08;;;;;;;35.10;21.48;;;13.90;99.90;;;;;;5075472;28;20033;-63
2023/04/09 11:10:35;;;;;;;32.03;20.83;;;13.90;99.90;;;;;;5087132;28;20044;-63
2023/04/09 11:13:01;;;;;;;34.13;21.75;;;13.90;99.90;;;;;;5082447;28;20041;-63
2023/04/09 11:15:27;;;;;;;34.50;21.10;;;14.00;99.90;;;;;;5085713;28;20041;-63
2023/04/09 11:17:53;;;;;;;35.03;20.48;;;14.00;99.90;;;;;;5095349;28;20047;-63
2023/04/09 11:20:20;;;;;;;32.50;19.67;;;14.10;99.90;;;;;;5084536;28;20036;-63
2023/04/09 11:22:47;;;;;;;33.80;21.23;;;14.30;99.90;;;;;;5087114;28;20075;-63
2023/04/09 11:25:20;;;;;;;31.92;20.15;;;14.60;99.90;;;;;;5081097;28;20091;-63
2023/04/09 11:27:47;;;;;;;31.95;19.33;;;14.80;99.90;;;;;;5094826;28;20036;-63
2023/04/09 11:30:12;;;;;;;34.97;20.73;;;14.90;99.90;;;;;;5076725;28;20468;-63
2023/04/09 11:32:38;;;;;;;37.30;21.77;;;15.10;99.90;;;;;;5094780;28;20071;-63
2023/04/09 11:35:04;;;;;;;34.92;21.55;;;15.20;99.90;;;;;;5073282;28;20486;-63
2023/04/09 11:37:30;;;;;;;33.53;20.17;;;15.30;99.90;;;;;;5085628;28;20036;-63
2023/04/09 11:39:57;;;;;;;33.45;21.33;;;15.40;99.90;;;;;;5094659;28;20043;-63
2023/04/09 11:42:24;;;;;;;35.05;22.70;;;15.40;99.90;;;;;;5094735;28;20044;-63
2023/04/09 11:44:51;;;;;;;35.13;21.23;;;15.40;99.90;;;;;;5085094;28;20478;-63
2023/04/09 11:47:17;;;;;;;35.97;21.88;;;15.40;99.90;;;;;;5089555;28;20502;-63
2023/04/09 11:49:43;;;;;;;34.65;22.15;;;15.30;99.90;;;;;;5085977;28;20047;-63
2023/04/09 11:52:09;;;;;;;35.72;22.80;;;15.30;99.90;;;;;;5094201;28;20036;-63
2023/04/09 11:54:35;;;;;;;33.75;20.95;;;15.10;99.90;;;;;;5086753;28;20108;-63
2023/04/09 11:57:04;;;;;;;31.25;20.42;;;15.00;99.90;;;;;;5072071;28;20170;-63
2023/04/09 11:59:30;;;;;;;33.70;20.85;;;15.00;99.90;;;;;;5094484;28;20037;-63
2023/04/09 12:01:59;;;;;;;33.83;20.83;;;15.00;99.90;;;;;;5090471;28;20077;-63
2023/04/09 12:04:25;;;;;;;33.85;21.52;;;14.90;99.90;;;;;;5077731;28;20037;-63
2023/04/09 12:06:56;;;;;;;34.42;21.20;;;14.80;99.90;;;;;;5088348;28;20039;-63
2023/04/09 12:09:22;;;;;;;36.78;23.02;;;14.70;99.90;;;;;;5094569;28;20402;-63
2023/04/09 12:11:47;;;;;;;37.63;22.70;;;14.70;99.90;;;;;;5089793;28;20040;-63
2023/04/09 12:14:17;;;;;;;33.63;21.10;;;14.60;99.90;;;;;;5077557;28;20110;-63
2023/04/09 12:16:43;;;;;;;34.42;21.40;;;14.70;99.90;;;;;;5078310;28;20032;-63
2023/04/09 12:19:11;;;;;;;37.15;22.65;;;14.80;99.90;;;;;;5075648;28;20124;-63
2023/04/09 12:21:51;;;;;;;35.97;22.75;;;14.70;99.90;;;;;;5093568;28;20036;-63
2023/04/09 12:24:19;;;;;;;36.17;22.35;;;14.70;99.90;;;;;;5072347;28;20044;-63
2023/04/09 12:26:45;;;;;;;35.17;21.85;;;14.70;99.90;;;;;;5078765;28;20055;-63
2023/04/09 12:29:13;;;;;;;35.45;21.90;;;14.70;99.90;;;;;;5078433;28;20044;-63
2023/04/09 12:31:38;;;;;;;33.63;21.10;;;14.60;99.90;;;;;;5084912;28;20036;-63
2023/04/09 12:34:04;;;;;;;33.20;21.52;;;14.60;99.90;;;;;;5094115;28;20036;-63
2023/04/09 12:36:30;;;;;;;31.90;20.05;;;14.70;99.90;;;;;;5093287;28;20043;-63
2023/04/09 12:38:55;;;;;;;32.85;20.15;;;14.80;99.90;;;;;;5089781;28;20144;-64